createdAt,value
2022-09-03T00:05:00.320Z,17.04
2022-09-03T00:10:09.522Z,16.98
2022-09-03T00:15:20.359Z,16.93
2022-09-03T00:20:30.387Z,16.86
2022-09-03T00:25:47.802Z,16.83
2022-09-03T00:30:53.974Z,16.72
2022-09-03T00:36:04.186Z,16.65
2022-09-03T00:41:14.852Z,16.63
2022-09-03T00:46:25.824Z,16.57
2022-09-03T00:51:38.295Z,16.56
2022-09-03T00:57:05.455Z,16.48
2022-09-03T01:02:17.286Z,16.46
2022-09-03T01:07:36.668Z,16.40
2022-09-03T01:12:48.910Z,16.38
2022-09-03T01:18:17.528Z,16.31
2022-09-03T01:23:20.384Z,16.25
2022-09-03T01:28:23.767Z,16.19
2022-09-03T01:33:40.553Z,16.13
2022-09-03T01:38:52.302Z,16.06
2022-09-03T01:44:32.845Z,16.02
2022-09-03T01:49:41.906Z,15.94
2022-09-03T01:55:06.210Z,15.89
2022-09-03T02:00:13.784Z,15.84
2022-09-03T02:05:19.451Z,15.79
2022-09-03T02:10:31.669Z,15.73
2022-09-03T02:15:41.295Z,15.66
2022-09-03T02:20:47.972Z,15.63
2022-09-03T02:25:54.917Z,15.56
2022-09-03T02:30:59.053Z,15.53
2022-09-03T02:36:03.712Z,15.48
2022-09-03T02:41:05.615Z,15.45
2022-09-03T02:46:10.649Z,15.42
2022-09-03T02:51:15.212Z,15.36
2022-09-03T02:56:24.443Z,15.31
2022-09-03T03:01:28.536Z,15.31
2022-09-03T03:06:33.331Z,15.26
2022-09-03T03:11:40.886Z,15.22
2022-09-03T03:16:44.821Z,15.16
2022-09-03T03:21:46.586Z,15.13
2022-09-03T03:26:48.760Z,15.07
2022-09-03T03:31:50.612Z,15.01
2022-09-03T03:37:00.176Z,14.99
2022-09-03T03:42:04.119Z,14.96
2022-09-03T03:47:08.913Z,14.91
2022-09-03T03:52:10.651Z,14.87
2022-09-03T03:57:14.630Z,14.83
2022-09-03T04:02:21.579Z,14.79
2022-09-03T04:07:25.731Z,14.72
2022-09-03T04:12:35.551Z,14.67
2022-09-03T04:17:40.530Z,14.63
2022-09-03T04:22:44.597Z,14.59
2022-09-03T04:27:49.700Z,14.57
2022-09-03T04:32:56.191Z,14.53
2022-09-03T04:38:00.603Z,14.49
2022-09-03T04:43:10.737Z,14.48
2022-09-03T04:48:14.748Z,14.47
2022-09-03T04:53:20.900Z,14.48
2022-09-03T04:58:22.673Z,14.47
2022-09-03T05:03:27.838Z,14.48
2022-09-03T05:08:29.521Z,14.49
2022-09-03T05:13:35.214Z,14.50
2022-09-03T05:18:39.597Z,14.55
2022-09-03T05:23:47.001Z,14.57
2022-09-03T05:28:49.038Z,14.62
2022-09-03T05:33:52.749Z,14.69
2022-09-03T05:38:55.886Z,14.73
2022-09-03T05:44:00.126Z,14.77
2022-09-03T05:49:03.499Z,14.82
2022-09-03T05:54:11.320Z,14.90
2022-09-03T05:59:13.866Z,14.94
2022-09-03T06:04:16.876Z,14.92
2022-09-03T06:09:24.284Z,14.89
2022-09-03T06:14:28.386Z,14.89
2022-09-03T06:19:30.106Z,14.91
2022-09-03T06:24:34.071Z,15.02
2022-09-03T06:29:37.028Z,15.20
2022-09-03T06:34:42.050Z,15.29
2022-09-03T06:39:46.568Z,15.35
2022-09-03T06:44:51.352Z,15.35
2022-09-03T06:49:55.328Z,15.54
2022-09-03T06:55:00.042Z,15.74
2022-09-03T07:00:07.142Z,15.94
2022-09-03T07:05:10.228Z,16.14
2022-09-03T07:10:16.257Z,16.26
2022-09-03T07:15:22.579Z,16.22
2022-09-03T07:20:31.226Z,16.50
2022-09-03T07:25:35.201Z,16.66
2022-09-03T07:30:36.872Z,16.57
2022-09-03T07:35:39.133Z,16.72
2022-09-03T07:40:43.945Z,16.78
2022-09-03T07:45:55.619Z,16.84
2022-09-03T07:51:03.909Z,16.82
2022-09-03T07:56:07.577Z,16.94
2022-09-03T08:01:16.106Z,16.95
2022-09-03T08:06:22.568Z,17.23
2022-09-03T08:11:27.702Z,17.56
2022-09-03T08:16:35.581Z,17.83
2022-09-03T08:21:42.625Z,18.12
2022-09-03T08:26:51.793Z,18.33
2022-09-03T08:31:59.697Z,18.55
2022-09-03T08:37:01.948Z,18.72
2022-09-03T08:42:31.598Z,18.89
2022-09-03T08:47:38.918Z,19.05
2022-09-03T08:52:50.162Z,19.21
2022-09-03T08:58:04.024Z,19.40
2022-09-03T09:03:28.050Z,19.58
2022-09-03T09:08:35.803Z,19.79
2022-09-03T09:13:45.072Z,19.93
2022-09-03T09:19:03.201Z,20.10
2022-09-03T09:24:10.850Z,20.29
2022-09-03T09:29:18.551Z,20.43
2022-09-03T09:34:24.680Z,20.63
2022-09-03T09:39:32.101Z,20.81
2022-09-03T09:44:36.218Z,20.86
2022-09-03T09:49:54.082Z,20.91
2022-09-03T09:55:17.785Z,21.06
2022-09-03T10:00:30.298Z,21.22
2022-09-03T10:05:36.810Z,21.34
2022-09-03T10:10:43.460Z,21.39
2022-09-03T10:15:48.238Z,21.54
2022-09-03T10:21:12.585Z,21.73
2022-09-03T10:26:29.333Z,21.80
2022-09-03T10:32:02.247Z,21.95
2022-09-03T10:37:23.631Z,22.01
2022-09-03T10:42:49.145Z,22.20
2022-09-03T10:48:08.046Z,22.29
2022-09-03T10:53:34.511Z,22.37
2022-09-03T10:58:54.948Z,22.48
2022-09-03T11:04:23.983Z,22.59
2022-09-03T11:09:49.896Z,22.76
2022-09-03T11:15:00.772Z,22.95
2022-09-03T11:20:14.690Z,23.21
2022-09-03T11:25:19.026Z,23.50
2022-09-03T11:30:41.525Z,23.65
2022-09-03T11:35:45.785Z,23.78
2022-09-03T11:40:56.923Z,23.62
2022-09-03T11:46:11.936Z,24.01
2022-09-03T11:51:30.112Z,24.42
2022-09-03T11:56:35.365Z,24.74
2022-09-03T12:01:37.684Z,24.95
2022-09-03T12:07:19.069Z,25.06
2022-09-03T12:12:41.613Z,25.60
2022-09-03T12:18:13.166Z,25.88
2022-09-03T12:23:50.507Z,26.12
2022-09-03T12:28:57.755Z,26.54
2022-09-03T12:34:16.214Z,26.91
2022-09-03T12:44:47.905Z,27.32
2022-09-03T12:49:52.115Z,27.75
2022-09-03T12:55:01.671Z,28.13
2022-09-03T13:00:12.694Z,28.46
2022-09-03T13:05:31.095Z,28.86
2022-09-03T13:10:42.010Z,29.08
2022-09-03T13:15:57.170Z,29.30
2022-09-03T13:21:32.148Z,29.72
2022-09-03T13:27:07.194Z,29.82
2022-09-03T13:32:23.559Z,30.19
2022-09-03T13:37:34.374Z,30.45
2022-09-03T13:42:39.659Z,30.71
2022-09-03T13:48:05.407Z,30.80
2022-09-03T13:53:25.162Z,30.96
2022-09-03T13:58:34.338Z,31.41
2022-09-03T14:03:48.569Z,31.60
2022-09-03T14:09:02.516Z,31.73
2022-09-03T14:14:28.151Z,31.80
2022-09-03T14:19:37.440Z,31.96
2022-09-03T14:24:57.778Z,32.16
2022-09-03T14:30:17.893Z,32.39
2022-09-03T14:35:48.458Z,32.76
2022-09-03T14:40:56.632Z,33.08
2022-09-03T14:46:23.572Z,33.53
2022-09-03T14:51:58.963Z,33.58
2022-09-03T14:57:40.558Z,33.50
2022-09-03T15:03:24.296Z,33.22
2022-09-03T15:08:40.135Z,33.43
2022-09-03T15:14:05.631Z,33.71
2022-09-03T15:19:19.567Z,34.10
2022-09-03T15:24:32.964Z,34.55
2022-09-03T15:30:09.348Z,34.71
2022-09-03T15:35:16.773Z,34.85
2022-09-03T15:40:33.527Z,34.88
2022-09-03T15:45:48.530Z,35.01
2022-09-03T15:51:25.588Z,35.01
2022-09-03T15:56:47.757Z,35.16
2022-09-03T16:02:10.968Z,35.11
2022-09-03T16:07:27.229Z,33.55
2022-09-03T16:12:53.962Z,31.91
2022-09-03T16:18:18.893Z,30.77
2022-09-03T16:23:40.814Z,30.04
2022-09-03T16:28:59.946Z,29.46
2022-09-03T16:34:10.090Z,28.87
2022-09-03T16:39:55.713Z,28.45
2022-09-03T16:45:31.008Z,28.04
2022-09-03T16:50:40.721Z,27.61
2022-09-03T16:56:35.308Z,27.37
2022-09-03T17:01:39.743Z,27.00
2022-09-03T17:07:07.167Z,26.68
2022-09-03T17:12:26.468Z,26.42
2022-09-03T17:17:43.496Z,26.25
2022-09-03T17:23:09.792Z,25.92
2022-09-03T17:28:39.292Z,25.68
2022-09-03T17:34:20.021Z,25.41
2022-09-03T17:39:43.709Z,25.15
2022-09-03T17:45:15.305Z,24.94
2022-09-03T17:50:30.429Z,24.77
2022-09-03T17:55:53.531Z,24.56
2022-09-03T18:01:11.250Z,24.39
2022-09-03T18:06:23.159Z,24.21
2022-09-03T18:11:35.909Z,24.02
2022-09-03T18:16:56.806Z,23.77
2022-09-03T18:22:20.399Z,23.56
2022-09-03T18:28:00.655Z,23.40
2022-09-03T18:33:21.231Z,23.20
2022-09-03T18:38:46.066Z,23.07
2022-09-03T18:44:17.902Z,22.92
2022-09-03T18:50:05.887Z,22.77
2022-09-03T18:55:42.567Z,22.62
2022-09-03T19:01:31.024Z,22.37
2022-09-03T19:06:59.125Z,22.18
2022-09-03T19:12:28.754Z,22.08
2022-09-03T19:18:15.359Z,22.08
2022-09-03T19:23:37.922Z,22.02
2022-09-03T19:29:01.754Z,21.94
2022-09-03T19:34:44.846Z,21.68
2022-09-03T19:40:13.701Z,21.47
2022-09-03T19:45:53.134Z,21.37
2022-09-03T19:51:25.804Z,21.25
2022-09-03T19:56:47.813Z,21.17
2022-09-03T20:02:11.369Z,21.06
2022-09-03T20:07:31.646Z,21.53
2022-09-03T20:12:40.544Z,21.15
2022-09-03T20:18:13.126Z,21.02
2022-09-03T20:23:29.570Z,20.84
2022-09-03T20:28:55.585Z,20.70
2022-09-03T20:34:38.640Z,20.56
2022-09-03T20:39:59.153Z,20.47
2022-09-03T20:45:19.797Z,20.37
2022-09-03T20:50:33.866Z,20.28
2022-09-03T20:55:45.100Z,20.21
2022-09-03T21:00:49.276Z,20.17
2022-09-03T21:06:06.840Z,20.12
2022-09-03T21:11:19.904Z,19.96
2022-09-03T21:16:24.690Z,19.92
2022-09-03T21:21:36.040Z,19.87
2022-09-03T21:26:46.182Z,19.83
2022-09-03T21:32:11.455Z,19.73
2022-09-03T21:37:15.995Z,19.64
2022-09-03T21:42:27.360Z,19.64
2022-09-03T21:47:33.874Z,19.56
2022-09-03T21:52:54.697Z,19.52
2022-09-03T21:58:04.926Z,19.48
2022-09-03T22:03:10.360Z,19.41
2022-09-03T22:08:28.570Z,19.36
2022-09-03T22:13:35.927Z,19.31
2022-09-03T22:18:44.128Z,19.30
2022-09-03T22:24:19.035Z,19.26
2022-09-03T22:29:51.840Z,19.21
2022-09-03T22:35:02.839Z,19.18
2022-09-03T22:40:31.569Z,19.14
2022-09-03T22:45:48.526Z,19.13
2022-09-03T22:51:03.009Z,19.06
2022-09-03T22:56:08.341Z,19.03
2022-09-03T23:01:38.269Z,18.95
2022-09-03T23:06:51.074Z,18.87
2022-09-03T23:11:58.404Z,18.82
2022-09-03T23:22:51.494Z,18.65
2022-09-03T23:28:06.115Z,18.46
2022-09-03T23:33:09.462Z,18.32
2022-09-03T23:38:26.215Z,18.20
2022-09-03T23:44:00.578Z,18.05
2022-09-03T23:49:11.658Z,17.88
2022-09-03T23:54:37.422Z,17.81
2022-09-03T23:59:41.489Z,17.69
